Time;durP1;ratioP1;P1;durP2;ratioP2;P2;SDS_P1;SDS_P2;PMS_P1;PMS_P2;Temp;Humidity;BMP_temperature;BMP_pressure;BME280_temperature;BME280_humidity;BME280_pressure;Samples;Min_cycle;Max_cycle;Signal;HPM_P1;HPM_P2
2021/01/06 00:00:41;;;;;;;16.92;8.43;;;2.80;99.90;;;;;;4990466;28;20161;-61
2021/01/06 00:03:13;;;;;;;14.57;7.55;;;2.80;99.90;;;;;;4990303;28;20073;-61
2021/01/06 00:05:39;;;;;;;18.80;8.18;;;2.80;99.90;;;;;;4992290;28;20023;-58
2021/01/06 00:08:05;;;;;;;13.88;6.90;;;2.70;99.90;;;;;;4988457;28;20283;-59
2021/01/06 00:10:32;;;;;;;15.60;7.13;;;2.70;99.90;;;;;;4915406;28;20291;-64
2021/01/06 00:12:59;;;;;;;12.40;7.20;;;2.70;99.90;;;;;;4971312;28;20771;-63
2021/01/06 00:15:28;;;;;;;14.10;7.85;;;2.70;99.90;;;;;;4985743;28;20034;-59
2021/01/06 00:17:54;;;;;;;12.70;7.60;;;2.70;99.90;;;;;;4984056;28;20034;-62
2021/01/06 00:20:22;;;;;;;14.00;7.55;;;2.60;99.90;;;;;;5001550;28;20408;-59
2021/01/06 00:22:48;;;;;;;11.73;6.78;;;2.60;99.90;;;;;;4985373;28;20069;-59
2021/01/06 00:25:24;;;;;;;13.63;6.85;;;2.60;99.90;;;;;;4984972;28;20057;-61
2021/01/06 00:27:50;;;;;;;13.18;8.13;;;2.50;99.90;;;;;;4976865;28;20057;-60
2021/01/06 00:30:31;;;;;;;12.43;7.60;;;2.60;99.90;;;;;;4997648;28;20026;-60
2021/01/06 00:32:57;;;;;;;12.52;7.28;;;2.50;99.90;;;;;;4988051;28;20031;-58
2021/01/06 00:35:24;;;;;;;14.88;7.80;;;2.50;99.90;;;;;;4935732;28;20116;-63
2021/01/06 00:37:50;;;;;;;13.75;7.43;;;2.50;99.90;;;;;;4986184;28;20026;-62
2021/01/06 00:40:18;;;;;;;11.88;7.32;;;2.50;99.90;;;;;;4981443;28;20049;-61
2021/01/06 00:42:44;;;;;;;12.63;7.28;;;2.50;99.90;;;;;;4985151;28;20022;-61
2021/01/06 00:45:14;;;;;;;13.30;7.15;;;2.50;99.90;;;;;;4984824;28;20019;-61
2021/01/06 00:47:41;;;;;;;14.77;7.88;;;2.50;99.90;;;;;;4985704;28;20030;-65
2021/01/06 00:50:07;;;;;;;15.90;8.65;;;2.50;99.90;;;;;;4989221;28;20403;-62
2021/01/06 00:52:33;;;;;;;13.10;7.57;;;2.50;99.90;;;;;;4985723;28;20122;-65
2021/01/06 00:54:59;;;;;;;17.58;7.93;;;2.50;99.90;;;;;;4989053;28;20109;-59
2021/01/06 00:57:24;;;;;;;15.32;8.70;;;2.50;99.90;;;;;;4992785;28;20053;-61
2021/01/06 00:59:50;;;;;;;15.88;8.57;;;2.50;99.90;;;;;;5002838;28;20058;-60
2021/01/06 01:02:16;;;;;;;15.73;7.63;;;2.50;99.90;;;;;;5003570;28;20109;-60
2021/01/06 01:04:41;;;;;;;15.90;8.63;;;2.50;99.90;;;;;;5002535;28;20049;-60
2021/01/06 01:07:07;;;;;;;16.63;8.63;;;2.60;99.90;;;;;;4989299;28;20022;-60
2021/01/06 01:09:33;;;;;;;16.95;8.55;;;2.60;99.90;;;;;;4988740;28;20026;-62
2021/01/06 01:11:59;;;;;;;13.90;8.05;;;2.50;99.90;;;;;;4989734;28;20037;-64
2021/01/06 01:14:25;;;;;;;14.38;8.15;;;2.50;99.90;;;;;;5004501;28;20571;-59
2021/01/06 01:16:51;;;;;;;15.55;7.80;;;2.50;99.90;;;;;;5003963;28;20030;-60
2021/01/06 01:19:17;;;;;;;14.13;7.30;;;2.60;99.90;;;;;;4987878;28;21489;-60
2021/01/06 01:21:43;;;;;;;10.80;6.35;;;2.60;99.90;;;;;;4988608;28;20041;-59
2021/01/06 01:24:09;;;;;;;14.48;7.03;;;2.50;99.90;;;;;;4981883;28;20030;-59
2021/01/06 01:26:35;;;;;;;13.10;7.05;;;2.60;99.90;;;;;;5004681;28;20022;-58
2021/01/06 01:29:01;;;;;;;12.43;6.85;;;2.50;99.90;;;;;;4998460;28;20069;-60
2021/01/06 01:31:37;;;;;;;12.23;7.00;;;2.50;99.90;;;;;;4990144;28;20555;-59
2021/01/06 01:34:04;;;;;;;13.13;7.45;;;2.50;99.90;;;;;;4975820;28;20113;-59
2021/01/06 01:36:30;;;;;;;12.82;6.63;;;2.50;99.90;;;;;;4986315;28;20031;-62
2021/01/06 01:38:56;;;;;;;12.27;6.78;;;2.50;99.90;;;;;;5000084;28;20035;-59
2021/01/06 01:41:25;;;;;;;12.68;5.78;;;2.40;99.90;;;;;;4988969;28;20496;-58
2021/01/06 01:43:51;;;;;;;9.10;5.47;;;2.40;99.90;;;;;;5006000;28;20034;-61
2021/01/06 01:46:20;;;;;;;8.68;5.13;;;2.40;99.90;;;;;;4989887;28;20507;-61
2021/01/06 01:48:51;;;;;;;12.50;6.53;;;2.40;99.90;;;;;;4988580;28;20046;-65
2021/01/06 01:51:34;;;;;;;12.05;7.47;;;2.40;99.90;;;;;;4988344;28;20503;-59
2021/01/06 01:54:08;;;;;;;11.98;6.25;;;2.40;99.90;;;;;;4988521;28;20037;-62
2021/01/06 01:56:37;;;;;;;;;;;2.40;99.90;;;;;;4990019;28;20026;-59
2021/01/06 01:59:06;;;;;;;11.98;6.50;;;2.40;99.90;;;;;;4990549;28;19921;-61
2021/01/06 02:01:33;;;;;;;11.52;6.72;;;2.40;99.90;;;;;;4989097;28;20030;-63
2021/01/06 02:04:14;;;;;;;12.38;6.78;;;2.40;99.90;;;;;;4989527;28;20042;-58
2021/01/06 02:07:10;;;;;;;10.65;5.93;;;2.40;99.90;;;;;;4986562;28;20030;-63
2021/01/06 02:09:57;;;;;;;9.80;6.05;;;2.40;99.90;;;;;;5000762;28;20036;-61
2021/01/06 02:12:47;;;;;;;10.88;5.90;;;2.40;99.90;;;;;;4987105;28;20034;-61
2021/01/06 02:15:15;;;;;;;7.95;5.15;;;2.40;99.90;;;;;;5003781;28;20543;-61
2021/01/06 02:17:41;;;;;;;10.57;5.72;;;2.40;99.90;;;;;;4990204;28;20034;-62
2021/01/06 02:20:22;;;;;;;11.23;5.82;;;2.40;99.90;;;;;;4988416;28;20026;-61
2021/01/06 02:22:50;;;;;;;11.38;6.82;;;2.30;99.90;;;;;;4990976;28;20022;-60
2021/01/06 02:25:16;;;;;;;10.07;5.57;;;2.40;99.90;;;;;;4992144;28;20033;-60
2021/01/06 02:27:42;;;;;;;14.80;6.63;;;2.40;99.90;;;;;;4987554;28;20023;-61
2021/01/06 02:30:11;;;;;;;13.43;6.75;;;2.40;99.90;;;;;;4993216;28;20496;-59
2021/01/06 02:32:36;;;;;;;10.77;6.43;;;2.40;99.90;;;;;;4993179;28;20054;-62
2021/01/06 02:35:06;;;;;;;11.43;6.22;;;2.40;99.90;;;;;;4993040;28;20022;-61
2021/01/06 02:37:32;;;;;;;11.55;6.75;;;2.40;99.90;;;;;;4988621;28;20046;-59
2021/01/06 02:39:57;;;;;;;10.07;6.10;;;2.40;99.90;;;;;;4991336;28;20084;-61
2021/01/06 02:42:23;;;;;;;9.75;6.00;;;2.40;99.90;;;;;;4990806;28;20026;-58
2021/01/06 02:44:49;;;;;;;12.02;6.50;;;2.40;99.90;;;;;;4992992;28;20073;-61
2021/01/06 02:47:16;;;;;;;9.95;6.28;;;2.40;99.90;;;;;;4993143;28;20476;-60
2021/01/06 02:49:43;;;;;;;12.02;6.95;;;2.40;99.90;;;;;;4992914;28;20084;-61
2021/01/06 02:52:51;;;;;;;10.57;6.55;;;2.50;99.90;;;;;;4991891;28;20026;-58
2021/01/06 02:55:18;;;;;;;8.20;4.93;;;2.50;99.90;;;;;;4970407;28;20023;-59
2021/01/06 02:57:45;;;;;;;9.25;5.68;;;2.50;99.90;;;;;;4987461;28;20456;-62
2021/01/06 03:00:16;;;;;;;9.13;5.72;;;2.50;99.90;;;;;;4992668;28;20026;-60
2021/01/06 03:02:43;;;;;;;10.23;6.43;;;2.50;99.90;;;;;;5007504;28;20030;-58
2021/01/06 03:05:32;;;;;;;9.30;6.22;;;2.50;99.90;;;;;;4995311;28;20023;-59
2021/01/06 03:07:57;;;;;;;8.85;5.38;;;2.40;99.90;;;;;;5005061;28;20113;-60
2021/01/06 03:10:23;;;;;;;8.10;5.45;;;2.40;99.90;;;;;;4994657;28;20109;-61
2021/01/06 03:12:52;;;;;;;9.35;5.85;;;2.40;99.90;;;;;;4993074;28;20030;-62
2021/01/06 03:15:21;;;;;;;9.60;5.65;;;2.40;99.90;;;;;;4992085;28;20616;-62
2021/01/06 03:17:48;;;;;;;10.05;6.28;;;2.40;99.90;;;;;;4989665;28;20033;-59
2021/01/06 03:20:23;;;;;;;8.30;5.38;;;2.40;99.90;;;;;;4991085;28;20044;-61
2021/01/06 03:22:53;;;;;;;10.20;6.00;;;2.50;99.90;;;;;;4990159;28;20112;-58
2021/01/06 03:25:19;;;;;;;9.50;5.95;;;2.40;99.90;;;;;;4991161;28;20040;-64
2021/01/06 03:27:49;;;;;;;10.10;6.18;;;2.40;99.90;;;;;;4991717;28;20488;-63
2021/01/06 03:30:21;;;;;;;11.55;6.45;;;2.40;99.90;;;;;;4989627;28;20045;-60
2021/01/06 03:33:10;;;;;;;9.35;6.25;;;2.40;99.90;;;;;;4989596;28;20042;-61
2021/01/06 03:35:45;;;;;;;10.13;6.43;;;2.30;99.90;;;;;;4986340;28;20566;-60
2021/01/06 03:38:37;;;;;;;8.75;6.10;;;2.40;99.90;;;;;;4989897;28;20058;-62
2021/01/06 03:41:05;;;;;;;10.82;6.65;;;2.40;99.90;;;;;;4983478;28;20061;-60
2021/01/06 03:43:33;;;;;;;11.48;7.03;;;2.40;99.90;;;;;;4988231;28;20019;-61
2021/01/06 03:46:28;;;;;;;11.65;7.60;;;2.40;99.90;;;;;;4992880;28;20027;-60
2021/01/06 03:49:37;;;;;;;11.40;6.65;;;2.40;99.90;;;;;;4991217;28;20037;-61
2021/01/06 03:52:16;;;;;;;11.30;6.45;;;2.40;99.90;;;;;;4991685;28;20026;-61
2021/01/06 03:55:02;;;;;;;10.80;6.38;;;2.40;99.90;;;;;;4990140;28;20032;-61
2021/01/06 03:57:29;;;;;;;11.70;6.63;;;2.40;99.90;;;;;;4991950;28;20048;-62
2021/01/06 03:59:56;;;;;;;10.43;6.32;;;2.40;99.90;;;;;;5007669;28;20030;-62
2021/01/06 04:02:42;;;;;;;11.73;6.85;;;2.50;99.90;;;;;;5007070;28;20097;-61
2021/01/06 04:05:10;;;;;;;14.57;7.22;;;2.50;99.90;;;;;;4988179;28;20094;-63
2021/01/06 04:07:51;;;;;;;10.70;6.97;;;2.50;99.90;;;;;;5008035;28;20018;-60
2021/01/06 04:10:25;;;;;;;10.00;6.70;;;2.50;99.90;;;;;;4986162;28;20073;-62
2021/01/06 04:12:50;;;;;;;10.25;6.65;;;2.50;99.90;;;;;;5007144;28;20119;-62
2021/01/06 04:15:17;;;;;;;10.63;6.47;;;2.60;99.90;;;;;;4988256;28;20038;-59
2021/01/06 04:17:46;;;;;;;11.70;6.50;;;2.60;99.90;;;;;;4988978;28;20030;-61
2021/01/06 04:20:15;;;;;;;10.38;6.28;;;2.70;99.90;;;;;;4980980;28;20039;-62
2021/01/06 04:22:48;;;;;;;11.13;6.90;;;2.70;99.90;;;;;;4987377;28;20105;-61
2021/01/06 04:25:22;;;;;;;10.18;6.22;;;2.80;99.90;;;;;;4991942;28;20030;-60
2021/01/06 04:27:59;;;;;;;10.80;6.95;;;2.80;99.90;;;;;;4989804;28;20019;-61
2021/01/06 04:30:43;;;;;;;10.10;6.07;;;2.80;99.90;;;;;;4987499;28;20042;-60
2021/01/06 04:33:13;;;;;;;13.48;7.07;;;2.80;99.90;;;;;;4990494;28;20057;-61
2021/01/06 04:35:39;;;;;;;10.48;6.32;;;2.80;99.90;;;;;;4983247;28;20396;-59
2021/01/06 04:38:06;;;;;;;12.48;6.25;;;2.80;99.90;;;;;;4990650;28;20030;-59
2021/01/06 04:40:39;;;;;;;11.40;6.82;;;2.80;99.90;;;;;;4991361;28;20090;-60
2021/01/06 04:43:10;;;;;;;12.02;6.30;;;2.80;99.90;;;;;;4986266;28;20046;-60
2021/01/06 04:45:40;;;;;;;12.77;6.30;;;2.80;99.90;;;;;;4990415;28;20052;-59
2021/01/06 04:48:38;;;;;;;10.10;6.47;;;2.90;99.90;;;;;;4990486;28;20035;-60
2021/01/06 04:51:24;;;;;;;12.55;6.55;;;2.80;99.90;;;;;;4989873;28;20019;-59
2021/01/06 04:53:55;;;;;;;13.82;7.53;;;2.80;99.90;;;;;;4986686;28;20030;-59
2021/01/06 04:56:36;;;;;;;10.95;6.00;;;2.80;99.90;;;;;;4985185;28;20027;-62
2021/01/06 04:59:39;;;;;;;12.70;6.70;;;2.80;99.90;;;;;;4990018;28;20062;-59
2021/01/06 05:02:49;;;;;;;11.40;6.88;;;2.70;99.90;;;;;;4985915;28;20026;-62
2021/01/06 05:05:47;;;;;;;10.75;6.47;;;2.70;99.90;;;;;;4971594;28;20080;-59
2021/01/06 05:08:31;;;;;;;10.77;6.38;;;2.70;99.90;;;;;;4986398;28;20026;-60
2021/01/06 05:11:21;;;;;;;12.00;6.88;;;2.70;99.90;;;;;;4997257;28;20057;-60
2021/01/06 05:14:12;;;;;;;12.32;6.55;;;2.70;99.90;;;;;;4991218;28;20511;-62
2021/01/06 05:16:42;;;;;;;12.95;7.70;;;2.70;99.90;;;;;;5003792;28;20105;-62
2021/01/06 05:19:21;;;;;;;15.20;6.78;;;2.70;99.90;;;;;;4989929;28;20030;-61
2021/01/06 05:21:48;;;;;;;14.55;7.68;;;2.70;99.90;;;;;;4972976;28;20506;-60
2021/01/06 05:24:52;;;;;;;12.98;7.43;;;2.70;99.90;;;;;;4989710;28;20026;-60
2021/01/06 05:27:25;;;;;;;13.68;7.75;;;2.70;99.90;;;;;;4967523;28;20033;-59
2021/01/06 05:29:57;;;;;;;12.20;6.93;;;2.70;99.90;;;;;;4986967;28;20098;-62
2021/01/06 05:32:47;;;;;;;13.15;7.40;;;2.70;99.90;;;;;;5007255;28;20030;-63
2021/01/06 05:35:21;;;;;;;10.43;6.32;;;2.70;99.90;;;;;;4986224;28;20022;-59
2021/01/06 05:37:57;;;;;;;13.00;8.02;;;2.70;99.90;;;;;;4998698;28;20478;-62
2021/01/06 05:40:24;;;;;;;11.15;6.95;;;2.70;99.90;;;;;;5005101;28;20121;-59
2021/01/06 05:42:58;;;;;;;11.90;6.97;;;2.70;99.90;;;;;;5002671;28;20033;-61
2021/01/06 05:45:42;;;;;;;12.55;7.40;;;2.80;99.90;;;;;;5005932;28;20022;-60
2021/01/06 05:48:20;;;;;;;14.60;7.27;;;2.80;99.90;;;;;;4975854;28;20085;-62
2021/01/06 05:51:01;;;;;;;15.13;7.72;;;2.80;99.90;;;;;;4986308;28;20527;-61
2021/01/06 05:53:46;;;;;;;11.45;6.95;;;2.80;99.90;;;;;;4988490;28;20030;-60
2021/01/06 05:56:50;;;;;;;10.30;7.03;;;2.80;99.90;;;;;;4987480;28;20523;-61
2021/01/06 05:59:20;;;;;;;12.40;6.97;;;2.90;99.90;;;;;;4989903;28;20031;-59
2021/01/06 06:01:58;;;;;;;12.60;7.50;;;2.90;99.90;;;;;;4994037;28;20381;-61
2021/01/06 06:04:34;;;;;;;13.13;7.30;;;2.90;99.90;;;;;;4992925;28;20026;-60
2021/01/06 06:07:11;;;;;;;12.77;7.22;;;2.90;99.90;;;;;;5002111;28;20081;-60
2021/01/06 06:10:02;;;;;;;11.25;7.47;;;3.00;99.90;;;;;;4992671;28;20038;-60
2021/01/06 06:12:37;;;;;;;14.75;7.70;;;2.90;99.90;;;;;;4991259;28;20391;-61
2021/01/06 06:15:13;;;;;;;12.55;7.32;;;3.00;99.90;;;;;;4994368;28;20045;-60
2021/01/06 06:18:01;;;;;;;13.80;7.10;;;3.00;99.90;;;;;;4992639;28;20400;-62
2021/01/06 06:20:46;;;;;;;10.73;6.45;;;3.00;99.90;;;;;;5000522;28;20408;-59
2021/01/06 06:23:40;;;;;;;13.55;6.95;;;3.00;99.90;;;;;;4993513;28;20058;-60
2021/01/06 06:26:33;;;;;;;10.52;6.75;;;3.00;99.90;;;;;;4986317;28;20069;-61
2021/01/06 06:29:08;;;;;;;12.30;6.78;;;3.00;99.90;;;;;;4985503;28;20136;-60
2021/01/06 06:31:36;;;;;;;10.68;7.00;;;3.10;99.90;;;;;;4985712;28;20619;-60
2021/01/06 06:34:08;;;;;;;11.90;7.07;;;3.10;99.90;;;;;;4995166;28;20439;-61
2021/01/06 06:36:45;;;;;;;14.27;7.63;;;3.10;99.90;;;;;;4994515;28;20034;-62
2021/01/06 06:39:29;;;;;;;10.35;6.80;;;3.10;99.90;;;;;;4999727;28;20457;-58
2021/01/06 06:42:19;;;;;;;9.75;6.65;;;3.10;99.90;;;;;;4989425;28;20035;-61
2021/01/06 06:45:23;;;;;;;11.88;6.68;;;3.10;99.90;;;;;;4991682;28;20500;-59
2021/01/06 06:47:49;;;;;;;11.27;6.93;;;3.10;99.90;;;;;;4982935;28;20050;-60
2021/01/06 06:50:36;;;;;;;10.38;7.38;;;3.10;99.90;;;;;;4987392;28;20580;-62
2021/01/06 06:53:27;;;;;;;13.32;8.10;;;3.10;99.90;;;;;;4993281;28;20031;-62
2021/01/06 06:56:01;;;;;;;15.32;6.93;;;3.00;99.90;;;;;;4992409;28;20088;-58
2021/01/06 06:58:58;;;;;;;13.57;7.75;;;3.10;99.90;;;;;;4977493;28;20054;-62
2021/01/06 07:01:32;;;;;;;12.68;7.10;;;3.10;99.90;;;;;;4982235;28;20034;-58
2021/01/06 07:04:02;;;;;;;13.23;7.27;;;3.10;99.90;;;;;;4992466;28;20027;-63
2021/01/06 07:06:29;;;;;;;13.15;7.30;;;3.00;99.90;;;;;;4987306;28;20034;-62
2021/01/06 07:08:58;;;;;;;13.88;7.60;;;3.00;99.90;;;;;;4997466;28;20416;-60
2021/01/06 07:11:31;;;;;;;16.73;8.77;;;3.00;99.90;;;;;;4988125;28;20030;-58
2021/01/06 07:14:21;;;;;;;13.93;7.32;;;3.00;99.90;;;;;;4987578;28;20471;-59
2021/01/06 07:16:53;;;;;;;13.40;8.55;;;3.00;99.90;;;;;;4993758;28;20046;-59
2021/01/06 07:19:27;;;;;;;14.30;8.82;;;3.00;99.90;;;;;;4987483;28;20034;-60
2021/01/06 07:22:15;;;;;;;13.75;9.02;;;3.00;99.90;;;;;;4990602;28;20031;-62
2021/01/06 07:24:41;;;;;;;16.13;8.93;;;3.00;99.90;;;;;;5001886;28;20030;-62
2021/01/06 07:27:07;;;;;;;15.38;8.80;;;3.00;99.90;;;;;;5003831;28;20065;-62
2021/01/06 07:29:50;;;;;;;14.45;9.23;;;2.90;99.90;;;;;;4991570;28;20077;-62
2021/01/06 07:32:17;;;;;;;16.70;10.00;;;3.00;99.90;;;;;;4986894;28;20026;-59
2021/01/06 07:34:57;;;;;;;20.38;9.50;;;2.90;99.90;;;;;;5008008;28;20018;-60
2021/01/06 07:37:35;;;;;;;14.65;8.60;;;2.90;99.90;;;;;;4991842;28;20054;-61
2021/01/06 07:40:20;;;;;;;16.92;9.70;;;2.80;99.90;;;;;;4992996;28;20037;-61
2021/01/06 07:42:49;;;;;;;14.75;8.90;;;2.90;99.90;;;;;;4986592;28;20030;-61
2021/01/06 07:45:24;;;;;;;13.73;8.98;;;2.90;99.90;;;;;;4985312;28;20026;-58
2021/01/06 07:48:24;;;;;;;12.43;8.55;;;2.90;99.90;;;;;;4991308;28;20102;-60
2021/01/06 07:51:02;;;;;;;19.40;9.45;;;2.90;99.90;;;;;;4984642;28;20041;-62
2021/01/06 07:54:03;;;;;;;13.85;9.20;;;2.90;99.90;;;;;;4987232;28;20104;-62
2021/01/06 07:56:37;;;;;;;16.58;8.82;;;2.90;99.90;;;;;;4981465;28;20031;-61
2021/01/06 07:59:10;;;;;;;;;;;2.90;99.90;;;;;;4976389;28;20133;-62
2021/01/06 08:01:46;;;;;;;21.42;9.10;;;2.90;99.90;;;;;;4917184;28;19984;-62
2021/01/06 08:04:37;;;;;;;14.65;9.32;;;2.90;99.90;;;;;;4988054;28;20022;-61
2021/01/06 08:07:07;;;;;;;13.52;8.80;;;3.00;99.90;;;;;;5004804;28;20035;-60
2021/01/06 08:09:39;;;;;;;14.15;8.52;;;3.00;99.90;;;;;;5003512;28;20553;-61
2021/01/06 08:12:32;;;;;;;14.90;8.63;;;3.00;99.90;;;;;;4980406;28;20026;-58
2021/01/06 08:15:30;;;;;;;13.82;7.60;;;3.10;99.90;;;;;;4987408;28;20065;-60
2021/01/06 08:18:27;;;;;;;13.70;8.07;;;3.10;99.90;;;;;;5000684;28;20038;-60
2021/01/06 08:21:31;;;;;;;14.68;8.05;;;3.20;99.90;;;;;;4979994;28;20089;-58
2021/01/06 08:24:04;;;;;;;12.40;7.78;;;3.20;99.90;;;;;;4976890;28;20025;-60
2021/01/06 08:26:31;;;;;;;17.23;8.05;;;3.30;99.90;;;;;;4982241;28;20037;-62
2021/01/06 08:29:16;;;;;;;12.73;7.75;;;3.40;99.90;;;;;;4988063;28;20431;-60
2021/01/06 08:31:43;;;;;;;12.77;7.63;;;3.30;99.90;;;;;;4968362;28;20037;-62
2021/01/06 08:34:21;;;;;;;13.20;8.18;;;3.30;99.90;;;;;;4981303;28;20547;-60
2021/01/06 08:37:03;;;;;;;14.88;9.32;;;3.30;99.90;;;;;;4974739;28;20062;-60
2021/01/06 08:39:33;;;;;;;14.75;8.20;;;3.30;99.90;;;;;;4982198;28;20034;-62
2021/01/06 08:42:11;;;;;;;10.95;7.88;;;3.30;99.90;;;;;;4985107;28;20018;-60
2021/01/06 08:45:06;;;;;;;10.73;7.10;;;3.40;99.90;;;;;;4978225;28;20516;-60
2021/01/06 08:47:37;;;;;;;;;;;3.40;99.90;;;;;;4983109;28;20023;-61
2021/01/06 08:50:15;;;;;;;15.18;6.97;;;3.50;99.90;;;;;;4985651;28;20047;-61
2021/01/06 08:52:40;;;;;;;11.65;7.35;;;3.60;99.90;;;;;;4985124;28;20026;-61
2021/01/06 08:55:23;;;;;;;13.43;7.22;;;3.50;99.90;;;;;;4997900;28;20037;-59
2021/01/06 08:58:03;;;;;;;9.88;7.18;;;3.60;99.90;;;;;;4982306;28;20058;-58
2021/01/06 09:00:36;;;;;;;8.88;6.18;;;3.70;99.90;;;;;;4929245;28;20586;-60
2021/01/06 09:03:21;;;;;;;9.43;6.30;;;3.70;99.90;;;;;;4986497;28;20038;-62
2021/01/06 09:06:11;;;;;;;9.30;5.88;;;3.70;99.90;;;;;;4980093;28;20065;-60
2021/01/06 09:08:36;;;;;;;8.05;5.72;;;3.70;99.90;;;;;;4986932;28;20032;-62
2021/01/06 09:11:08;;;;;;;8.32;5.25;;;3.70;99.90;;;;;;4986745;28;20030;-60
2021/01/06 09:13:44;;;;;;;11.15;6.07;;;3.80;99.90;;;;;;4987112;28;20076;-62
2021/01/06 09:16:21;;;;;;;9.57;6.40;;;3.80;99.90;;;;;;4978693;28;20094;-58
2021/01/06 09:19:16;;;;;;;8.05;5.40;;;3.80;99.90;;;;;;4984981;28;20030;-62
2021/01/06 09:21:42;;;;;;;9.38;5.88;;;3.90;99.90;;;;;;4986792;28;20025;-62
2021/01/06 09:24:27;;;;;;;8.85;5.50;;;3.90;99.90;;;;;;4985042;28;20041;-59
2021/01/06 09:27:22;;;;;;;10.18;6.60;;;4.00;99.90;;;;;;4983956;28;20080;-62
2021/01/06 09:29:49;;;;;;;10.18;6.90;;;4.00;99.90;;;;;;4984147;28;20030;-61
2021/01/06 09:32:24;;;;;;;11.75;6.82;;;3.90;99.90;;;;;;4986938;28;20084;-60
2021/01/06 09:35:03;;;;;;;9.98;6.55;;;3.90;99.90;;;;;;4985295;28;20109;-62
2021/01/06 09:37:32;;;;;;;10.27;6.78;;;3.80;99.90;;;;;;4980728;28;20038;-63
2021/01/06 09:40:10;;;;;;;10.27;7.22;;;3.80;99.90;;;;;;4985372;28;20071;-63
2021/01/06 09:42:39;;;;;;;10.02;6.60;;;3.80;99.90;;;;;;4981304;28;20030;-58
2021/01/06 09:45:07;;;;;;;7.63;5.97;;;3.90;99.90;;;;;;4979359;28;20036;-61
2021/01/06 09:47:36;;;;;;;8.45;6.35;;;3.90;99.90;;;;;;5002186;28;20022;-61
2021/01/06 09:50:23;;;;;;;8.40;6.43;;;4.00;99.90;;;;;;4987650;28;20026;-60
2021/01/06 09:52:51;;;;;;;10.88;7.57;;;4.10;99.90;;;;;;4985595;28;20035;-62
2021/01/06 09:55:21;;;;;;;9.75;6.50;;;4.10;99.90;;;;;;4985135;28;20034;-62
2021/01/06 09:58:10;;;;;;;8.73;6.30;;;4.30;99.90;;;;;;4984157;28;20062;-62
2021/01/06 10:00:45;;;;;;;14.15;6.82;;;4.40;99.90;;;;;;4966515;28;20042;-64
2021/01/06 10:03:11;;;;;;;11.82;7.80;;;4.40;99.90;;;;;;4984359;28;20065;-59
2021/01/06 10:05:56;;;;;;;9.57;6.78;;;4.50;99.90;;;;;;4982206;28;20081;-61
2021/01/06 10:08:32;;;;;;;8.45;5.72;;;4.70;99.90;;;;;;4986153;28;20015;-60
2021/01/06 10:11:05;;;;;;;10.55;6.45;;;4.70;99.90;;;;;;5003725;28;20027;-62
2021/01/06 10:13:52;;;;;;;9.70;6.15;;;4.70;99.90;;;;;;4984049;28;20033;-60
2021/01/06 10:16:25;;;;;;;9.35;6.32;;;4.60;99.90;;;;;;5001382;28;20030;-63
2021/01/06 10:19:08;;;;;;;8.73;6.53;;;4.60;99.90;;;;;;5000112;28;20038;-61
2021/01/06 10:21:49;;;;;;;7.45;5.60;;;4.60;99.90;;;;;;4977066;28;20027;-62
2021/01/06 10:25:01;;;;;;;9.13;6.60;;;4.50;99.90;;;;;;4984847;28;20034;-61
2021/01/06 10:27:34;;;;;;;8.93;6.10;;;4.50;99.90;;;;;;4999610;28;20381;-59
2021/01/06 10:30:15;;;;;;;9.82;6.60;;;4.50;99.90;;;;;;4979488;28;20113;-63
2021/01/06 10:32:50;;;;;;;8.30;6.40;;;4.40;99.90;;;;;;4980156;28;20073;-60
2021/01/06 10:35:33;;;;;;;9.18;6.55;;;4.40;99.90;;;;;;4985196;28;20029;-60
2021/01/06 10:38:26;;;;;;;9.43;6.73;;;4.40;99.90;;;;;;4986961;28;20034;-60
2021/01/06 10:40:56;;;;;;;8.48;5.72;;;4.40;99.90;;;;;;4983843;28;20282;-60
2021/01/06 10:43:40;;;;;;;9.00;6.85;;;4.40;99.90;;;;;;4989412;28;20055;-59
2021/01/06 10:46:41;;;;;;;9.43;6.70;;;4.40;99.90;;;;;;5003605;28;20030;-60
2021/01/06 10:49:49;;;;;;;10.77;6.40;;;4.40;99.90;;;;;;4993826;28;20022;-63
2021/01/06 10:52:19;;;;;;;12.77;7.20;;;4.50;99.90;;;;;;4981556;28;20558;-61
2021/01/06 10:54:52;;;;;;;10.40;6.90;;;4.50;99.90;;;;;;4986464;28;20030;-59
2021/01/06 10:57:34;;;;;;;8.30;5.63;;;4.20;99.90;;;;;;4988330;28;20073;-62
2021/01/06 11:00:21;;;;;;;8.15;5.95;;;4.40;99.90;;;;;;4984964;28;20500;-63
2021/01/06 11:03:21;;;;;;;8.55;5.53;;;4.50;99.90;;;;;;4988025;28;20042;-60
2021/01/06 11:05:53;;;;;;;7.53;5.53;;;4.50;99.90;;;;;;4986972;28;20035;-62
2021/01/06 11:08:37;;;;;;;6.10;4.72;;;4.50;99.90;;;;;;4987481;28;20102;-59
2021/01/06 11:11:39;;;;;;;8.25;5.30;;;4.50;99.90;;;;;;4988426;28;20065;-63
2021/01/06 11:14:30;;;;;;;8.10;5.90;;;4.50;99.90;;;;;;4976338;28;20035;-60
2021/01/06 11:17:12;;;;;;;5.68;4.43;;;4.50;99.90;;;;;;4987757;28;20029;-61
2021/01/06 11:19:41;;;;;;;6.65;4.65;;;4.50;99.90;;;;;;4974138;28;20168;-62
2021/01/06 11:22:38;;;;;;;7.22;5.32;;;4.60;99.90;;;;;;4984111;28;20014;-58
2021/01/06 11:25:49;;;;;;;6.43;4.32;;;4.60;99.90;;;;;;5000534;28;20026;-60
2021/01/06 11:28:27;;;;;;;6.82;4.60;;;4.70;99.90;;;;;;4997125;28;20031;-62
2021/01/06 11:31:19;;;;;;;5.95;4.05;;;4.60;99.90;;;;;;4987753;28;20018;-60
2021/01/06 11:33:51;;;;;;;7.47;4.53;;;4.60;99.90;;;;;;4985056;28;20096;-60
2021/01/06 11:36:38;;;;;;;7.32;5.10;;;4.70;99.90;;;;;;4983491;28;20031;-60
2021/01/06 11:39:09;;;;;;;6.15;4.50;;;4.60;99.90;;;;;;4981898;28;20026;-59
2021/01/06 11:41:34;;;;;;;6.15;4.32;;;4.60;99.90;;;;;;4985606;28;20488;-62
2021/01/06 11:44:20;;;;;;;6.93;4.18;;;4.50;99.90;;;;;;4987481;28;20046;-60
2021/01/06 11:46:52;;;;;;;8.55;5.18;;;4.50;99.90;;;;;;4986349;28;20034;-58
2021/01/06 11:49:18;;;;;;;5.55;4.25;;;4.50;99.90;;;;;;4986457;28;20026;-60
2021/01/06 11:52:05;;;;;;;6.57;5.00;;;4.50;99.90;;;;;;5000387;28;20065;-57
2021/01/06 11:54:43;;;;;;;8.15;5.00;;;4.40;99.90;;;;;;4988063;28;20032;-61
2021/01/06 11:57:49;;;;;;;5.72;4.38;;;4.50;99.90;;;;;;4985108;28;20411;-61
2021/01/06 12:00:21;;;;;;;8.32;5.35;;;4.40;99.90;;;;;;4958596;28;20034;-61
2021/01/06 12:03:17;;;;;;;7.15;5.30;;;4.40;99.90;;;;;;4989342;28;20042;-62
2021/01/06 12:06:01;;;;;;;7.85;6.03;;;4.30;99.90;;;;;;4982938;28;20030;-63
2021/01/06 12:08:41;;;;;;;7.07;5.20;;;4.40;99.90;;;;;;4981660;28;20033;-61
2021/01/06 12:11:25;;;;;;;8.10;5.72;;;4.40;99.90;;;;;;4982390;28;20057;-64
2021/01/06 12:14:04;;;;;;;7.25;5.05;;;4.30;99.90;;;;;;4975037;28;20034;-62
2021/01/06 12:16:50;;;;;;;7.28;5.07;;;4.30;99.90;;;;;;4976009;28;20030;-62
2021/01/06 12:19:22;;;;;;;7.13;5.07;;;4.30;99.90;;;;;;4976437;28;20030;-58
2021/01/06 12:21:59;;;;;;;7.82;5.38;;;4.10;99.90;;;;;;4980839;28;20035;-58
2021/01/06 12:24:31;;;;;;;10.77;6.22;;;4.10;99.90;;;;;;4976914;28;20495;-62
2021/01/06 12:27:19;;;;;;;8.00;5.97;;;4.10;99.90;;;;;;4985135;28;20069;-60
2021/01/06 12:29:52;;;;;;;9.10;6.13;;;4.30;99.90;;;;;;4977935;28;20547;-61
2021/01/06 12:32:38;;;;;;;9.40;6.85;;;4.30;99.90;;;;;;4985710;28;20121;-59
2021/01/06 12:35:13;;;;;;;12.68;7.03;;;4.40;99.90;;;;;;4976635;28;20038;-64
2021/01/06 12:37:40;;;;;;;9.77;7.18;;;4.40;99.90;;;;;;4982633;28;20038;-62
2021/01/06 12:40:26;;;;;;;11.80;7.93;;;4.30;99.90;;;;;;4985748;28;20116;-60
2021/01/06 12:43:01;;;;;;;14.27;8.13;;;4.20;99.90;;;;;;4983424;28;20030;-59
2021/01/06 12:45:36;;;;;;;14.20;9.43;;;4.20;99.90;;;;;;4986620;28;20022;-61
2021/01/06 12:48:08;;;;;;;13.70;9.20;;;4.10;99.90;;;;;;4987069;28;20041;-60
2021/01/06 12:50:56;;;;;;;16.67;10.27;;;4.00;99.90;;;;;;4987078;28;20489;-63
2021/01/06 12:53:26;;;;;;;15.93;10.73;;;3.90;99.90;;;;;;4984483;28;20043;-63
2021/01/06 12:56:04;;;;;;;21.15;12.82;;;4.00;99.90;;;;;;4986622;28;20517;-64
2021/01/06 12:58:42;;;;;;;20.98;13.00;;;3.80;99.90;;;;;;4986055;28;20101;-61
2021/01/06 13:01:20;;;;;;;23.30;12.95;;;3.90;99.90;;;;;;4962621;28;20047;-63
2021/01/06 13:04:01;;;;;;;20.50;12.93;;;3.80;99.90;;;;;;4985205;28;20042;-60
2021/01/06 13:06:58;;;;;;;22.35;14.10;;;3.90;99.90;;;;;;4985444;28;20116;-61
2021/01/06 13:09:41;;;;;;;20.67;13.73;;;3.80;99.90;;;;;;4984016;28;20118;-62
2021/01/06 13:12:09;;;;;;;23.98;14.48;;;3.90;99.90;;;;;;4985997;28;20113;-62
2021/01/06 13:14:35;;;;;;;22.42;14.52;;;3.90;99.90;;;;;;4999047;28;20101;-63
2021/01/06 13:17:17;;;;;;;23.45;14.82;;;3.80;99.90;;;;;;4985915;28;20109;-62
2021/01/06 13:20:01;;;;;;;26.38;16.40;;;3.80;99.90;;;;;;4986252;28;20503;-61
2021/01/06 13:22:31;;;;;;;26.63;15.32;;;3.80;99.90;;;;;;4982820;28;20057;-62
2021/01/06 13:25:15;;;;;;;23.40;15.38;;;3.80;99.90;;;;;;4986030;28;20070;-61
2021/01/06 13:27:53;;;;;;;21.67;14.65;;;3.80;99.90;;;;;;4984332;28;20048;-62
2021/01/06 13:30:18;;;;;;;23.70;14.93;;;3.80;99.90;;;;;;4983123;28;20506;-62
2021/01/06 13:32:50;;;;;;;26.02;16.02;;;3.80;99.90;;;;;;4985773;28;20105;-62
2021/01/06 13:35:36;;;;;;;24.48;15.75;;;3.80;99.90;;;;;;4984731;28;20034;-61
2021/01/06 13:38:48;;;;;;;27.38;14.88;;;3.80;99.90;;;;;;4986207;28;20061;-58
2021/01/06 13:41:44;;;;;;;24.80;15.40;;;3.90;99.90;;;;;;4982679;28;20042;-62